KRNT

Details ICAO KRNT (RNT)
Name Renton Muni
Region United States
Timezone America/Los_Angeles (UTC-7.0)
Plans Departing 179
Arriving 58
Stats Elevation 32 ft / 10 m (AMSL)
Location 47.493100° -122.216000°
Runways 1
Magnetic Variation 15.558° E
Sunrise 2018-10-19 14:34:31 UTC / 2018-10-19 07:34:31 Local
Sunset 2018-10-20 01:15:21 UTC / 2018-10-19 18:15:21 Local
Advertisement - Login to hide

Runways

ID Width Length Bearing (true/mag) Surface Threshold Overrun Markings Lighting
16 200 ft / 61 m 5,391 ft / 1,643 m 174.17° / 158.61° ASPHALT 312 ft / 95 m 0 ft / 0 m APP CENTERLINE EDGE THRESHOLD MALSF
34 200 ft / 61 m 5,391 ft / 1,643 m 354.17° / 338.61° ASPHALT 351 ft / 107 m 161 ft / 49 m APP CENTERLINE EDGE THRESHOLD MALSF

Map

Weather


0- 5 10 15 20 25 30 35+ Temperature / °C

Clouds and Precipitation
Forecast for 2018-10-20 06:00 UTC. Updated 3 hours ago

Ground ~20,000 ft ~40,000 ft Winds

METAR

KRNT 200553Z AUTO 00000KT 5SM CLR 09/08 A3025 RMK AO2 SLP249 T00940078 10167 20094 51001

TAF

Not found

Frequencies

Approach 120.10 MHz SEATTLE APP/DEP
Approach 120.40 MHz SEATTLE APP/DEP
Ground 121.60 MHz
Unicom 124.70 MHz CTAF
Unicom 122.85 MHz UNICOM
Unicom 122.95 MHz UNICOM
Recorded 126.95 MHz ATIS
Approach 125.90 MHz SEATTLE APP/DEP
Tower 124.70 MHz
Approach 119.20 MHz SEATTLE APP/DEP
Warning: Do not use this data for real-world aviation or navigation. No guarantee of current accuracy is given.